Deale, Maryland
Current Conditions -  °F | °C
As of 5:54 PM on Tuesday 27 Jan 2015 (Local Time) from KNAK Reporting Station
Clear Clear  
Wind Chill: 24°   Ceiling: Unl
Heat Index: 33°   Visibility: 10mi
Dew Point: 22°   Wind: 13mph
Humidity: 64%   Direction: 310°NW
Pressure: 29.82"   Gusts: 24mph
Location:  38.78°N, 76.55°W
Report Text: KNAK 272254Z AUTO 31011G21KT 10SM CLR 01/M06 A2982 RMK AO2 SLP099 T00061056
Loading
Personal Weather Stations






























Interactive Weather Map New forecast layout! Learn more

10-Day Weather Forecast

Advertisements
Track Severe Weather on mobile